Time;durP1;ratioP1;P1;durP2;ratioP2;P2;SDS_P1;SDS_P2;PMS_P1;PMS_P2;Temp;Humidity;BMP_temperature;BMP_pressure;BME280_temperature;BME280_humidity;BME280_pressure;Samples;Min_cycle;Max_cycle;Signal;HPM_P1;HPM_P2
2022/05/18 00:01:47;;;;;;;3.58;1.75;;;20.90;94.70;;;21.12;63.35;101330.25;5126892;29;20051;-73
2022/05/18 00:04:19;;;;;;;3.45;1.52;;;20.80;94.80;;;21.11;63.38;101331.16;5127166;29;20055;-75
2022/05/18 00:06:51;;;;;;;1.70;1.50;;;20.80;94.90;;;21.10;63.64;101338.22;5127130;29;20051;-74
2022/05/18 00:09:23;;;;;;;2.88;1.85;;;20.80;95.10;;;21.09;63.55;101339.09;5126803;29;20051;-74
2022/05/18 00:11:55;;;;;;;4.43;1.95;;;20.80;95.20;;;21.09;63.61;101338.22;5126818;29;20404;-73
2022/05/18 00:14:28;;;;;;;5.47;2.42;;;20.80;95.30;;;21.11;63.66;101331.16;5126856;28;20412;-74
2022/05/18 00:17:03;;;;;;;2.22;1.25;;;20.70;95.40;;;21.13;63.56;101334.69;5126483;29;20142;-73
2022/05/18 00:19:35;;;;;;;;;;;20.80;95.40;;;21.13;63.64;101334.69;5126947;28;20058;-73
2022/05/18 00:22:07;;;;;;;2.60;1.63;;;20.80;95.50;;;21.13;63.71;101340.00;5126259;28;19922;-73
2022/05/18 00:24:39;;;;;;;1.83;1.52;;;20.80;95.50;;;21.12;63.59;101341.75;5126882;29;20436;-73
2022/05/18 00:27:11;;;;;;;2.15;1.50;;;20.80;95.50;;;21.14;63.54;101347.06;5126650;29;20408;-73
2022/05/18 00:29:44;;;;;;;2.80;1.63;;;20.80;95.60;;;21.13;63.77;101337.34;5126280;29;20051;-73
2022/05/18 00:32:16;;;;;;;2.38;1.65;;;20.80;95.70;;;21.14;63.73;101341.75;5126339;29;20062;-73
2022/05/18 00:34:48;;;;;;;3.17;1.67;;;20.80;95.80;;;21.13;63.74;101345.31;5126221;29;20502;-74
2022/05/18 00:37:20;;;;;;;3.15;1.80;;;20.70;95.80;;;21.10;63.65;101343.53;5126452;29;20081;-73
2022/05/18 00:39:52;;;;;;;2.90;1.95;;;20.70;95.80;;;21.11;63.86;101347.06;5126116;29;20051;-73
2022/05/18 00:42:28;;;;;;;2.47;1.73;;;20.70;96.00;;;21.10;64.04;101348.81;5106231;29;20048;-73
2022/05/18 00:45:01;;;;;;;2.65;1.52;;;20.70;96.20;;;21.09;64.11;101355.00;5106755;29;20044;-73
2022/05/18 00:47:34;;;;;;;1.67;1.23;;;20.70;96.20;;;21.11;64.27;101362.94;5106444;29;20062;-74
2022/05/18 00:50:11;;;;;;;4.63;1.88;;;20.70;96.40;;;21.04;64.48;101356.75;5105969;29;20056;-74
2022/05/18 00:52:48;;;;;;;2.08;1.50;;;20.70;96.50;;;21.01;64.60;101369.16;5106094;29;20051;-73
2022/05/18 00:55:24;;;;;;;2.92;2.05;;;20.60;96.60;;;20.99;64.83;101368.25;5106390;29;20379;-74
2022/05/18 00:58:05;;;;;;;3.15;1.60;;;20.60;96.80;;;20.97;65.08;101380.63;5105917;29;20055;-72
2022/05/18 01:00:40;;;;;;;3.00;1.48;;;20.50;97.00;;;20.95;65.38;101371.78;5106152;29;20055;-74
2022/05/18 01:03:15;;;;;;;;;;;20.50;97.30;;;20.93;65.57;101374.44;5106678;29;20055;-75
2022/05/18 01:05:52;;;;;;;2.42;1.55;;;20.50;97.50;;;20.92;65.93;101372.66;5105863;29;20409;-74
2022/05/18 01:08:33;;;;;;;1.75;1.45;;;20.50;97.80;;;20.88;66.15;101375.31;5105432;29;20055;-73
2022/05/18 01:11:05;;;;;;;3.15;1.75;;;20.40;97.90;;;20.82;65.96;101377.06;5106125;29;20054;-73
2022/05/18 01:13:37;;;;;;;2.45;1.40;;;20.40;97.90;;;20.81;66.34;101375.31;5105768;29;20409;-73
2022/05/18 01:16:11;;;;;;;2.63;1.50;;;20.40;98.10;;;20.78;66.76;101369.97;5106111;29;20409;-73
2022/05/18 01:18:43;;;;;;;2.75;1.40;;;20.40;98.40;;;20.76;66.99;101376.16;5105260;29;20052;-75
2022/05/18 01:21:15;;;;;;;1.80;1.45;;;20.30;98.60;;;20.73;67.19;101371.72;5106114;29;20058;-76
2022/05/18 01:23:55;;;;;;;2.70;1.50;;;20.30;98.80;;;20.70;67.46;101370.84;5105669;29;20052;-74
2022/05/18 01:26:40;;;;;;;1.60;1.10;;;20.30;99.00;;;20.66;67.72;101375.25;5105885;29;20060;-75
2022/05/18 01:29:13;;;;;;;2.08;1.45;;;20.20;99.20;;;20.61;67.81;101379.66;5105749;29;20052;-73
2022/05/18 01:31:50;;;;;;;2.88;1.45;;;20.10;99.40;;;20.56;68.03;101384.06;5105392;29;20058;-73
2022/05/18 01:34:25;;;;;;;2.47;1.17;;;20.10;99.60;;;20.51;68.63;101380.50;5105249;29;20066;-73
2022/05/18 01:36:58;;;;;;;2.13;1.38;;;20.10;99.90;;;20.45;69.17;101391.97;5105761;29;20082;-74
2022/05/18 01:39:34;;;;;;;2.22;1.27;;;20.00;99.90;;;20.39;69.56;101394.53;5105224;29;20047;-74
2022/05/18 01:42:20;;;;;;;1.77;1.30;;;19.90;99.90;;;20.33;69.98;101398.06;5105771;29;20148;-74
2022/05/18 01:44:52;;;;;;;1.33;1.23;;;19.90;99.90;;;20.24;70.55;101402.44;5105241;29;20106;-73
2022/05/18 01:47:24;;;;;;;1.33;1.23;;;19.80;99.90;;;20.15;71.37;101397.06;5105401;29;20059;-75
2022/05/18 01:49:56;;;;;;;1.75;1.10;;;19.70;99.90;;;20.08;71.86;101398.81;5105310;29;20406;-74
2022/05/18 01:52:29;;;;;;;1.60;1.30;;;19.70;99.90;;;20.03;72.63;101395.28;5105034;29;20139;-72
2022/05/18 01:55:01;;;;;;;1.35;1.20;;;19.60;99.90;;;19.98;72.85;101404.94;5105142;29;20055;-73
2022/05/18 01:57:37;;;;;;;2.42;1.27;;;19.60;99.90;;;19.95;73.18;101404.91;5104966;29;20048;-74
2022/05/18 02:00:11;;;;;;;1.90;1.50;;;19.50;99.90;;;19.88;73.53;101395.16;5105413;29;20051;-75
2022/05/18 02:02:43;;;;;;;1.65;1.30;;;19.40;99.90;;;19.81;73.86;101396.00;5104957;29;20048;-74
2022/05/18 02:05:15;;;;;;;1.92;1.38;;;19.40;99.90;;;19.72;74.30;101408.31;5105160;29;20659;-75
2022/05/18 02:07:47;;;;;;;3.53;1.40;;;19.30;99.90;;;19.65;74.64;101400.31;5105036;29;20052;-75
2022/05/18 02:10:19;;;;;;;1.75;1.38;;;19.20;99.90;;;19.59;74.96;101398.50;5104848;29;20062;-74
2022/05/18 02:12:53;;;;;;;2.13;1.90;;;19.10;99.90;;;19.56;74.75;101394.91;5104969;29;20063;-73
2022/05/18 02:15:26;;;;;;;1.60;1.35;;;19.10;99.90;;;19.55;75.00;101398.44;5104980;29;20058;-74
2022/05/18 02:17:58;;;;;;;2.17;1.60;;;19.10;99.90;;;19.52;75.40;101401.94;5105149;29;20060;-74
2022/05/18 02:20:30;;;;;;;1.50;1.23;;;19.10;99.90;;;19.46;75.72;101394.84;5104753;29;20052;-75
2022/05/18 02:23:03;;;;;;;1.80;1.55;;;19.00;99.90;;;19.41;76.14;101395.69;5104793;29;20052;-74
2022/05/18 02:25:37;;;;;;;2.55;1.45;;;19.00;99.90;;;19.34;76.67;101399.16;5105141;29;20421;-74
2022/05/18 02:28:10;;;;;;;2.38;1.70;;;18.90;99.90;;;19.29;77.07;101404.41;5104705;29;20044;-74
2022/05/18 02:30:42;;;;;;;1.67;1.40;;;18.90;99.90;;;19.24;77.40;101395.56;5105106;29;20066;-72
2022/05/18 02:33:15;;;;;;;2.03;1.50;;;18.80;99.90;;;19.19;77.64;101392.88;5104914;29;20051;-74
2022/05/18 02:35:47;;;;;;;1.92;1.40;;;18.80;99.90;;;19.16;78.15;101398.09;5104814;29;20209;-73
2022/05/18 02:38:19;;;;;;;3.17;1.42;;;18.70;99.90;;;19.11;78.33;101397.22;5105045;29;20510;-73
2022/05/18 02:40:51;;;;;;;2.03;1.50;;;18.70;99.90;;;19.07;78.69;101392.75;5104796;29;20059;-74
2022/05/18 02:43:24;;;;;;;1.42;1.25;;;18.60;99.90;;;19.04;78.88;101395.38;5105118;29;20058;-73
2022/05/18 02:46:05;;;;;;;2.38;1.65;;;18.60;99.90;;;18.98;79.10;101395.31;5108826;29;20070;-73
2022/05/18 02:48:38;;;;;;;2.00;1.40;;;18.60;99.90;;;18.95;79.35;101400.56;5108625;29;20051;-74
2022/05/18 02:51:12;;;;;;;1.60;1.30;;;18.50;99.90;;;18.90;79.50;101391.69;5108595;29;20059;-74
2022/05/18 02:53:45;;;;;;;3.22;1.50;;;18.50;99.90;;;18.87;79.63;101386.41;5108500;29;20052;-74
2022/05/18 02:56:23;;;;;;;2.95;1.60;;;18.50;99.90;;;18.84;79.66;101407.47;5108491;29;20048;-75
2022/05/18 02:58:57;;;;;;;2.20;1.20;;;18.40;99.90;;;18.81;79.91;101402.19;5108378;29;20051;-74
2022/05/18 03:01:29;;;;;;;1.80;1.40;;;18.40;99.90;;;18.76;79.86;101403.88;5108466;29;20512;-74
2022/05/18 03:04:02;;;;;;;1.77;1.50;;;18.30;99.90;;;18.73;80.03;101406.50;5107991;29;20058;-74
2022/05/18 03:06:34;;;;;;;2.20;1.60;;;18.30;99.90;;;18.67;80.20;101404.66;5108098;29;20055;-73
2022/05/18 03:09:06;;;;;;;3.00;1.52;;;18.30;99.90;;;18.62;80.63;101404.56;5108000;29;20055;-74
2022/05/18 03:11:38;;;;;;;2.35;1.60;;;18.20;99.90;;;18.57;80.88;101403.63;5108397;29;20497;-73
2022/05/18 03:14:12;;;;;;;2.75;1.45;;;18.20;99.90;;;18.52;81.15;101394.78;5108068;29;20051;-73
2022/05/18 03:16:45;;;;;;;3.17;1.80;;;18.10;99.90;;;18.49;81.39;101400.00;5108136;29;20401;-75
2022/05/18 03:19:17;;;;;;;2.05;1.45;;;18.10;99.90;;;18.48;81.61;101397.38;5107593;29;20059;-74
2022/05/18 03:24:39;;;;;;;2.55;1.48;;;18.00;99.90;;;18.44;81.67;101406.97;5107838;29;20075;-73
2022/05/18 03:27:12;;;;;;;2.38;1.77;;;18.00;99.90;;;18.42;81.56;101408.72;5107995;29;20043;-72
2022/05/18 03:29:45;;;;;;;2.78;1.83;;;18.00;99.90;;;18.42;81.19;101398.16;5107406;29;20051;-74
2022/05/18 03:32:17;;;;;;;2.63;1.60;;;18.00;99.90;;;18.42;81.04;101406.09;5107824;29;20606;-75
2022/05/18 03:34:50;;;;;;;2.03;1.63;;;18.00;99.90;;;18.41;80.76;101401.69;5107577;29;20055;-73
2022/05/18 03:37:22;;;;;;;2.60;1.92;;;18.00;99.90;;;18.40;80.77;101408.72;5107876;29;20059;-74
2022/05/18 03:39:54;;;;;;;2.42;1.73;;;18.00;99.90;;;18.40;80.92;101405.19;5107155;29;20408;-74
2022/05/18 03:42:26;;;;;;;2.40;1.92;;;18.00;99.90;;;18.35;81.16;101406.88;5107931;29;20051;-74
2022/05/18 03:45:00;;;;;;;4.43;1.63;;;17.90;99.90;;;18.32;81.49;101406.81;5107364;29;20051;-73
2022/05/18 03:47:32;;;;;;;1.77;1.52;;;17.90;99.90;;;18.29;81.62;101417.38;5107521;29;20501;-75
2022/05/18 03:50:06;;;;;;;1.90;1.60;;;17.90;99.90;;;18.24;81.95;101417.28;5107254;29;20056;-73
2022/05/18 03:52:38;;;;;;;;;;;17.90;99.90;;;18.20;82.42;101418.13;5107545;29;20052;-75
2022/05/18 03:55:10;;;;;;;2.17;1.65;;;17.80;99.90;;;18.17;82.70;101418.97;5106546;29;19923;-75
2022/05/18 03:57:42;;;;;;;3.20;1.52;;;17.80;99.90;;;18.16;82.95;101416.31;5107980;29;20055;-73
2022/05/18 04:00:17;;;;;;;1.88;1.60;;;17.80;99.90;;;18.15;83.35;101414.53;5106902;29;20054;-76
2022/05/18 04:02:49;;;;;;;2.35;1.65;;;17.80;99.90;;;18.15;83.59;101418.06;5107305;29;20131;-73
2022/05/18 04:05:22;;;;;;;2.75;2.30;;;17.80;99.90;;;18.17;83.38;101424.25;5107474;29;20478;-73
2022/05/18 04:07:54;;;;;;;3.85;2.30;;;17.80;99.90;;;18.20;82.92;101425.16;5106746;29;20056;-74
2022/05/18 04:10:26;;;;;;;2.75;2.22;;;17.80;99.90;;;18.26;82.32;101420.84;5106923;29;20062;-74
2022/05/18 04:12:58;;;;;;;4.68;2.22;;;17.90;99.90;;;18.34;82.09;101426.22;5107005;29;20493;-74
2022/05/18 04:15:32;;;;;;;2.75;1.90;;;17.90;99.90;;;18.42;82.27;101417.53;5106896;29;20048;-74
2022/05/18 04:18:05;;;;;;;2.45;1.92;;;18.00;99.90;;;18.48;82.17;101424.66;5106947;29;20054;-74
2022/05/18 04:20:38;;;;;;;3.35;1.73;;;18.10;99.90;;;18.54;81.96;101422.09;5106435;29;20052;-74
2022/05/18 04:23:12;;;;;;;3.40;1.83;;;18.10;99.90;;;18.62;81.91;101428.34;5106960;29;20055;-73
2022/05/18 04:25:44;;;;;;;3.17;2.17;;;18.20;99.90;;;18.65;81.97;101430.16;5106742;29;20051;-74
2022/05/18 04:28:17;;;;;;;2.35;1.73;;;18.30;99.90;;;18.69;82.25;101442.53;5106560;29;20468;-73
2022/05/18 04:30:51;;;;;;;2.95;1.88;;;18.30;99.90;;;18.72;82.46;101441.69;5106794;29;20463;-73
2022/05/18 04:33:26;;;;;;;3.10;1.75;;;18.30;99.90;;;18.72;82.41;101444.34;5106675;29;20047;-73
2022/05/18 04:36:02;;;;;;;2.13;1.92;;;18.40;99.90;;;18.76;82.66;101446.13;5179167;23;20046;-72
2022/05/18 04:38:34;;;;;;;3.38;1.83;;;18.40;99.90;;;18.78;82.56;101447.94;5148824;28;20423;-73
2022/05/18 04:41:06;;;;;;;3.58;2.28;;;18.40;99.90;;;18.82;82.85;101446.19;5135665;28;20361;-72
2022/05/18 04:43:39;;;;;;;2.80;1.92;;;18.40;99.90;;;18.85;83.23;101446.25;5146042;28;20050;-73
2022/05/18 04:46:12;;;;;;;2.97;2.30;;;18.40;99.90;;;18.90;83.57;101447.16;5145358;28;20414;-73
2022/05/18 04:48:44;;;;;;;3.13;2.00;;;18.50;99.90;;;18.98;83.68;101453.44;5130589;28;20051;-71
2022/05/18 04:51:16;;;;;;;3.85;2.17;;;18.50;99.90;;;19.16;83.93;101456.25;5126121;29;20062;-71
2022/05/18 04:53:48;;;;;;;3.70;2.30;;;18.70;99.90;;;19.37;83.40;101446.78;5141594;28;20051;-72
2022/05/18 04:56:20;;;;;;;4.47;2.50;;;18.90;99.90;;;19.52;81.59;101462.78;5137641;28;20043;-72
2022/05/18 04:58:53;;;;;;;4.55;2.53;;;19.00;99.90;;;19.68;81.38;101462.03;5145625;28;20303;-72
2022/05/18 05:01:30;;;;;;;4.57;2.47;;;19.20;99.90;;;19.93;80.09;101460.47;5145789;28;20082;-72
2022/05/18 05:04:02;;;;;;;6.00;2.65;;;19.40;99.90;;;20.15;78.34;101471.19;5145711;28;20523;-72
2022/05/18 05:06:34;;;;;;;4.95;2.33;;;19.60;99.90;;;20.28;77.45;101483.66;5145129;28;20047;-73
2022/05/18 05:09:07;;;;;;;4.13;2.53;;;19.80;99.90;;;20.35;76.99;101482.81;5144753;28;20097;-72
2022/05/18 05:11:39;;;;;;;3.90;2.22;;;19.80;99.90;;;20.36;76.82;101486.34;5145543;28;20051;-72
2022/05/18 05:14:11;;;;;;;4.72;2.53;;;19.90;99.90;;;20.42;77.50;101492.56;5145207;28;20054;-72
2022/05/18 05:16:45;;;;;;;4.47;2.30;;;19.90;99.90;;;20.61;76.33;101493.56;5145577;28;20054;-72
2022/05/18 05:19:18;;;;;;;5.20;2.60;;;20.10;99.90;;;20.94;74.02;101502.53;5145003;28;20051;-72
2022/05/18 05:21:50;;;;;;;3.03;2.42;;;20.30;99.90;;;21.35;72.62;101506.19;5145052;28;20050;-74
2022/05/18 05:24:22;;;;;;;5.85;2.67;;;20.70;99.90;;;21.78;70.10;101500.03;5141311;28;20057;-72
2022/05/18 05:26:54;;;;;;;2.08;1.73;;;21.00;99.90;;;22.10;68.39;101492.94;5141809;28;20046;-72
2022/05/18 05:29:26;;;;;;;3.72;2.22;;;21.40;99.90;;;22.33;66.19;101498.22;5144850;28;20051;-72
2022/05/18 05:32:06;;;;;;;4.72;2.28;;;21.60;99.90;;;22.48;65.30;101492.88;5145091;28;20047;-73
2022/05/18 05:34:38;;;;;;;4.50;2.30;;;21.80;99.90;;;22.51;64.51;101504.38;5145330;28;20046;-72
2022/05/18 05:37:10;;;;;;;3.47;2.40;;;21.90;99.80;;;22.53;64.68;101513.22;5144966;28;20051;-72
2022/05/18 05:39:42;;;;;;;2.70;1.83;;;22.00;99.80;;;22.45;64.62;101511.47;5144795;28;20047;-74
2022/05/18 05:42:14;;;;;;;3.45;2.22;;;21.90;99.60;;;22.66;64.99;101512.31;5144965;28;20053;-73
2022/05/18 05:44:46;;;;;;;3.45;2.42;;;22.10;99.90;;;23.01;63.42;101520.16;5144979;28;20101;-72
2022/05/18 05:47:20;;;;;;;4.00;2.03;;;22.30;99.30;;;23.29;62.54;101521.78;5145077;28;20055;-73
2022/05/18 05:49:53;;;;;;;4.63;2.00;;;22.50;98.90;;;23.34;61.27;101516.41;5145005;28;20054;-72
2022/05/18 05:52:25;;;;;;;4.22;2.10;;;22.60;98.10;;;23.41;60.81;101522.56;5144895;28;20050;-73
2022/05/18 05:54:59;;;;;;;3.10;1.90;;;22.70;97.70;;;23.33;60.36;101522.63;5144744;28;20054;-72
2022/05/18 05:57:31;;;;;;;3.38;2.00;;;22.70;97.20;;;23.21;60.47;101520.03;5144870;28;20051;-68
2022/05/18 06:00:04;;;;;;;3.20;2.00;;;22.60;97.10;;;23.12;60.94;101522.75;5144945;28;20579;-71
2022/05/18 06:02:37;;;;;;;3.42;2.25;;;22.60;97.10;;;23.11;61.49;101513.91;5144667;28;20061;-71
2022/05/18 06:05:10;;;;;;;4.60;2.20;;;22.60;97.30;;;23.20;60.74;101518.28;5145058;28;20069;-71
2022/05/18 06:07:42;;;;;;;3.85;2.25;;;22.60;97.00;;;23.32;60.97;101518.19;5144422;28;21677;-71
2022/05/18 06:10:14;;;;;;;4.38;2.38;;;22.70;97.10;;;23.66;60.06;101523.31;5144494;28;20050;-70
2022/05/18 06:12:46;;;;;;;3.78;2.30;;;22.90;96.80;;;24.07;58.86;101521.19;5144765;28;20047;-71
2022/05/18 06:15:18;;;;;;;4.72;2.40;;;23.20;96.40;;;24.51;57.25;101521.66;5145044;28;20047;-70
2022/05/18 06:17:51;;;;;;;2.80;2.17;;;23.60;95.60;;;24.66;55.68;101515.28;5144803;28;20338;-71
2022/05/18 06:20:23;;;;;;;3.67;2.05;;;23.80;94.20;;;24.69;54.98;101518.78;5148500;28;20046;-71
2022/05/18 06:22:56;;;;;;;3.42;2.10;;;24.00;93.50;;;24.71;55.16;101516.09;5148803;28;20054;-70
2022/05/18 06:25:28;;;;;;;4.93;2.00;;;24.00;93.10;;;24.59;55.17;101512.69;5148902;28;20053;-71
2022/05/18 06:28:00;;;;;;;2.33;1.75;;;24.00;92.90;;;24.49;55.30;101513.69;5148717;28;20050;-71
2022/05/18 06:30:32;;;;;;;5.68;2.30;;;23.90;92.70;;;24.38;55.89;101515.56;5147863;28;20137;-70
2022/05/18 06:33:06;;;;;;;3.58;2.22;;;23.80;92.80;;;24.28;56.14;101516.56;5141944;28;20068;-70
2022/05/18 06:35:38;;;;;;;5.32;2.25;;;23.70;93.00;;;24.49;56.62;101513.69;5140135;28;20055;-69
2022/05/18 06:38:13;;;;;;;4.07;2.60;;;23.80;93.30;;;24.95;55.11;101523.78;5140949;28;20051;-70
2022/05/18 06:43:35;;;;;;;3.67;2.28;;;24.30;91.80;;;25.31;53.91;101517.09;5147870;28;20065;-58
2022/05/18 06:46:07;;;;;;;4.50;2.13;;;24.50;91.90;;;25.24;53.07;101514.56;5140012;28;20555;-61
2022/05/18 06:48:41;;;;;;;3.85;2.17;;;24.60;90.90;;;25.16;53.26;101518.19;5147778;28;20059;-60
2022/05/18 06:51:14;;;;;;;3.33;2.08;;;24.50;90.70;;;25.26;53.87;101512.75;5129534;28;20078;-63
2022/05/18 06:53:47;;;;;;;4.07;2.13;;;24.50;91.10;;;25.42;54.04;101515.13;5135879;28;20051;-64
2022/05/18 06:56:20;;;;;;;3.70;1.88;;;24.70;91.30;;;25.54;53.71;101518.53;5127812;29;20055;-62
2022/05/18 06:58:54;;;;;;;2.72;2.00;;;24.70;91.00;;;25.63;52.73;101515.72;5128225;29;20055;-64
2022/05/18 07:01:29;;;;;;;2.75;1.50;;;24.80;90.50;;;25.69;52.28;101505.84;5127948;29;20053;-62
2022/05/18 07:04:03;;;;;;;3.40;1.83;;;24.80;90.10;;;25.80;52.58;101521.69;5128271;29;20098;-63
2022/05/18 07:06:37;;;;;;;;;;;24.90;90.40;;;25.89;52.26;101515.34;5135021;28;20496;-63
2022/05/18 07:09:14;;;;;;;5.05;1.80;;;25.00;90.10;;;25.89;51.32;101515.34;5139218;28;19926;-63
2022/05/18 07:11:49;;;;;;;3.88;1.88;;;25.00;88.80;;;25.92;51.26;101520.59;5147756;28;20051;-69
2022/05/18 07:14:24;;;;;;;3.75;2.00;;;25.00;88.00;;;26.00;51.55;101509.78;5147684;28;20138;-69
2022/05/18 07:16:57;;;;;;;4.15;2.00;;;25.10;88.50;;;26.09;51.71;101518.53;5147770;28;20067;-69
2022/05/18 07:19:31;;;;;;;4.05;1.90;;;25.20;88.50;;;26.25;51.37;101520.00;5147724;28;20062;-70
2022/05/18 07:22:05;;;;;;;2.95;1.90;;;25.30;88.10;;;26.45;50.85;101521.44;5148138;28;20451;-69
2022/05/18 07:24:37;;;;;;;3.83;2.15;;;25.40;87.80;;;26.61;50.82;101528.25;5146652;28;20049;-70
2022/05/18 07:27:09;;;;;;;4.25;1.88;;;25.50;87.80;;;26.70;49.67;101522.72;5139717;28;20122;-71
2022/05/18 07:29:41;;;;;;;2.97;1.60;;;25.60;86.00;;;26.82;49.63;101520.72;5147073;28;20404;-71
2022/05/18 07:32:13;;;;;;;2.85;1.67;;;25.70;85.60;;;26.87;48.72;101526.84;5147343;28;20492;-72
2022/05/18 07:34:47;;;;;;;2.47;1.60;;;25.80;83.80;;;26.94;48.57;101520.44;5147636;28;20067;-71
2022/05/18 07:37:20;;;;;;;3.58;1.70;;;25.90;83.40;;;27.08;48.17;101522.84;5139243;28;20108;-70
2022/05/18 07:39:52;;;;;;;3.90;1.80;;;26.00;82.80;;;27.20;47.82;101518.09;5147387;28;20063;-70
2022/05/18 07:42:24;;;;;;;2.42;1.55;;;26.10;81.90;;;27.41;47.70;101516.72;5143016;28;20051;-70
2022/05/18 07:44:56;;;;;;;3.67;2.00;;;26.30;81.80;;;27.54;47.12;101520.88;5144219;28;20493;-70
2022/05/18 07:47:30;;;;;;;2.22;1.52;;;26.40;80.40;;;27.76;46.61;101515.88;5146936;28;20484;-70
2022/05/18 07:50:04;;;;;;;3.22;1.70;;;26.60;80.30;;;27.99;45.28;101517.13;5147275;28;20058;-70
2022/05/18 07:52:36;;;;;;;;;;;26.70;78.10;;;28.15;44.72;101514.91;5147559;28;20051;-70
2022/05/18 07:55:08;;;;;;;3.40;1.90;;;26.90;77.10;;;28.49;44.84;101512.19;5146984;28;19929;-70
2022/05/18 07:57:41;;;;;;;3.05;1.73;;;27.10;77.30;;;28.83;43.89;101515.69;5147219;28;20338;-71
2022/05/18 08:00:15;;;;;;;4.50;2.05;;;27.30;76.80;;;29.15;42.17;101521.91;5136472;28;20055;-72
2022/05/18 08:02:47;;;;;;;3.13;1.92;;;27.60;74.30;;;29.34;41.09;101524.88;5142479;28;20471;-70
2022/05/18 08:05:21;;;;;;;3.13;1.63;;;27.70;72.40;;;29.80;40.74;101520.72;5147170;28;20055;-70
2022/05/18 08:07:53;;;;;;;2.58;1.52;;;28.00;72.20;;;30.27;40.80;101519.13;5146864;28;20061;-71
2022/05/18 08:16:06;;;;;;;2.28;1.50;;;28.90;68.40;;;31.99;35.49;101503.38;5146634;28;20054;-70
2022/05/18 08:18:38;;;;;;;2.15;1.65;;;29.30;66.00;;;32.53;33.86;101510.00;5146584;28;20140;-72
2022/05/18 08:21:11;;;;;;;3.20;1.52;;;29.60;63.70;;;33.21;33.14;101516.72;5146572;28;20054;-71
2022/05/18 08:23:43;;;;;;;1.58;1.40;;;29.90;63.20;;;34.01;32.20;101512.75;5147032;28;20384;-71
2022/05/18 08:26:16;;;;;;;1.95;1.33;;;30.30;62.70;;;35.05;30.86;101523.44;5145410;28;20043;-71
2022/05/18 08:28:48;;;;;;;1.83;1.25;;;30.90;61.50;;;35.99;28.39;101518.88;5138410;28;20055;-71
2022/05/18 08:31:21;;;;;;;2.30;1.30;;;31.50;59.00;;;36.81;27.22;101521.03;5138249;28;20199;-71
2022/05/18 08:33:53;;;;;;;1.65;1.38;;;32.10;57.20;;;37.61;26.29;101525.75;5146549;28;20418;-71
2022/05/18 08:36:27;;;;;;;2.22;1.20;;;32.90;55.90;;;38.48;25.88;101525.22;5145886;28;20072;-71
2022/05/18 08:38:59;;;;;;;2.20;1.17;;;33.80;55.40;;;39.36;24.44;101533.34;5145960;28;20484;-71
2022/05/18 08:41:38;;;;;;;1.75;1.25;;;34.60;53.80;;;39.64;23.57;101515.78;5146238;28;20078;-72
2022/05/18 08:44:27;;;;;;;3.10;1.30;;;35.10;51.50;;;40.18;23.39;101519.84;5146370;28;20055;-73
2022/05/18 08:47:13;;;;;;;1.77;1.20;;;35.70;51.10;;;40.86;22.70;101519.78;5145865;28;20089;-71
2022/05/18 08:49:57;;;;;;;2.22;1.30;;;36.40;50.30;;;41.38;22.15;101525.59;5141390;28;20051;-72
2022/05/18 08:52:41;;;;;;;1.98;1.17;;;36.80;49.80;;;41.32;21.37;101523.38;5139188;28;20058;-71
2022/05/18 08:55:41;;;;;;;2.40;1.42;;;36.90;47.80;;;41.08;21.30;101516.22;5138404;28;20050;-72
2022/05/18 08:58:21;;;;;;;2.85;1.33;;;36.90;47.30;;;40.99;21.07;101519.69;5145488;28;20137;-72
2022/05/18 09:00:59;;;;;;;1.83;1.08;;;36.90;47.20;;;41.23;21.79;101522.25;5146329;28;20105;-71
2022/05/18 09:03:37;;;;;;;1.33;1.17;;;37.00;47.60;;;41.19;21.02;101528.97;5145588;28;20058;-71
2022/05/18 09:06:28;;;;;;;4.22;1.40;;;37.00;46.70;;;41.08;20.79;101526.25;5142418;28;20307;-75
2022/05/18 09:11:57;;;;;;;2.28;1.30;;;37.20;46.70;;;41.24;21.34;101520.38;5142247;28;20055;-71
2022/05/18 09:14:36;;;;;;;3.50;1.30;;;37.10;46.60;;;41.13;22.01;101527.59;5133500;28;20055;-72
2022/05/18 09:17:20;;;;;;;2.97;1.30;;;37.10;47.10;;;40.89;22.24;101522.31;5125477;29;20571;-72
2022/05/18 09:20:13;;;;;;;2.75;1.50;;;37.10;47.20;;;40.06;21.88;101503.44;5125469;29;20055;-71
2022/05/18 09:23:13;;;;;;;1.48;1.08;;;36.90;45.90;;;39.12;22.90;101513.34;5125584;29;20053;-71
2022/05/18 09:26:02;;;;;;;1.80;1.13;;;36.50;46.70;;;38.38;23.53;101512.34;5125629;29;20055;-71
2022/05/18 09:28:53;;;;;;;1.67;1.20;;;36.10;46.60;;;37.44;24.19;101509.72;5125229;29;20062;-73
2022/05/18 09:32:07;;;;;;;1.83;1.38;;;35.60;47.00;;;36.14;25.53;101504.41;5125947;29;20051;-71
2022/05/18 09:35:07;;;;;;;1.73;1.30;;;34.90;47.30;;;35.07;26.74;101499.81;5093267;29;20555;-70
2022/05/18 09:37:46;;;;;;;2.90;1.30;;;34.00;48.20;;;34.57;27.27;101494.50;5125047;29;20051;-71
2022/05/18 09:40:25;;;;;;;2.65;1.10;;;33.50;48.90;;;34.22;27.44;101500.81;5125205;29;20055;-71
2022/05/18 09:43:07;;;;;;;2.72;1.60;;;33.10;48.90;;;33.71;27.78;101499.84;5125697;29;20062;-71
2022/05/18 09:45:44;;;;;;;1.48;1.15;;;32.70;48.90;;;33.52;28.55;101493.63;5127707;28;20047;-72
2022/05/18 09:48:20;;;;;;;1.63;1.20;;;32.50;49.70;;;33.52;29.15;101488.22;5136675;28;20046;-70
2022/05/18 09:50:54;;;;;;;1.65;1.30;;;32.40;50.40;;;33.51;29.14;101502.66;5145507;28;20051;-73
2022/05/18 09:53:26;;;;;;;2.47;1.23;;;32.30;50.40;;;33.44;28.21;101490.41;5144502;28;20051;-70
2022/05/18 09:55:58;;;;;;;1.75;1.25;;;32.30;49.30;;;33.44;28.61;101488.56;5145233;28;20134;-71
2022/05/18 09:58:36;;;;;;;2.25;1.55;;;32.20;49.90;;;33.30;28.08;101487.50;5144971;28;20054;-72
2022/05/18 10:07:30;;;;;;;1.83;1.20;;;31.90;48.90;;;32.74;28.93;101474.88;5144257;28;20054;-70
2022/05/18 10:10:13;;;;;;;1.75;1.30;;;31.80;49.80;;;32.70;29.16;101474.13;5134014;28;20507;-71
2022/05/18 10:12:49;;;;;;;2.15;1.33;;;31.70;50.00;;;32.77;29.09;101466.63;5125204;29;20484;-71
2022/05/18 10:15:33;;;;;;;1.95;1.30;;;31.70;49.90;;;32.84;29.01;101468.09;5124886;29;20051;-70
2022/05/18 10:18:18;;;;;;;2.22;1.50;;;31.70;49.90;;;32.89;28.67;101471.47;5125041;29;20050;-70
2022/05/18 10:21:13;;;;;;;4.30;1.50;;;31.80;49.50;;;32.76;28.44;101464.88;5124828;29;20058;-71
2022/05/18 10:23:55;;;;;;;2.72;1.42;;;31.80;49.30;;;32.43;28.51;101462.81;5124881;29;20055;-71
2022/05/18 10:26:30;;;;;;;2.70;1.40;;;31.50;48.90;;;32.31;28.81;101458.81;5125095;29;20137;-70
2022/05/18 10:29:07;;;;;;;1.83;1.25;;;31.40;49.40;;;32.34;28.86;101457.81;5124833;29;20137;-71
2022/05/18 10:31:43;;;;;;;2.13;1.20;;;31.40;49.40;;;32.49;29.73;101457.13;5124899;29;20051;-71
2022/05/18 10:34:29;;;;;;;1.95;1.50;;;31.40;50.50;;;32.55;29.37;101450.56;5124831;29;20405;-70
2022/05/18 10:37:03;;;;;;;2.40;1.20;;;31.50;50.10;;;32.64;29.33;101451.00;5305072;23;20018;-69
2022/05/18 10:39:39;;;;;;;;;;;31.50;50.10;;;32.56;28.38;101452.31;5123239;28;20061;-69
2022/05/18 10:42:23;;;;;;;2.90;1.33;;;31.50;49.00;;;32.44;28.60;101444.78;5125877;28;20381;-69
2022/05/18 10:44:58;;;;;;;1.45;1.23;;;31.50;49.30;;;32.43;28.80;101441.22;5129266;28;20499;-69
2022/05/18 10:47:36;;;;;;;2.28;1.58;;;31.50;49.40;;;32.42;28.71;101438.59;5132836;28;20051;-70
2022/05/18 10:50:32;;;;;;;2.00;1.13;;;31.40;49.40;;;32.59;29.09;101441.38;5142702;28;20513;-71
2022/05/18 10:53:29;;;;;;;1.48;1.08;;;31.50;49.80;;;32.84;28.18;101441.09;5136670;28;20051;-70
2022/05/18 10:56:08;;;;;;;2.53;1.15;;;31.70;49.20;;;33.05;28.29;101442.75;5135118;28;20415;-69
2022/05/18 10:58:45;;;;;;;1.77;1.30;;;31.80;49.30;;;33.19;27.89;101437.59;5124028;28;20467;-71
2022/05/18 11:01:23;;;;;;;1.13;0.98;;;32.00;49.10;;;33.32;28.25;101442.34;5135833;28;20046;-70
2022/05/18 11:04:02;;;;;;;1.65;1.23;;;32.00;49.20;;;33.30;27.61;101439.72;5144552;28;20165;-69
2022/05/18 11:06:38;;;;;;;1.33;1.17;;;32.10;48.70;;;33.23;27.23;101427.47;5148372;28;20043;-70